Hlavní strana
METAR-TAF:

METAR-TAF

Letiště :

Visby, Gotland, Švédsko

zeměpisná šířka: 57-40N, zeměpisná délka: 018-21E, výška: 51 m

Aktuální stav počasí

Zpráva byla vytvořena před 20 minutami, v 04:50 UTC
Východojihovýchodní vítr 8 kt
Teplota 13°C
Vlhkost vzduchu 94%
Tlak 996 hPa
Viditelnost 10 km a více
Žádná oblačnost pod 1500 m, nevyskytují se cumulonimby.

METAR: ESSV 050450Z 12008KT CAVOK 13/12 Q0996

Čas: 07:10 (05:10 UTC)

Předpověď počasí

Zpráva byla vytvořena před 2 hodinami a 40 minutami, v 02:30 UTC
Předpověď platná od 05 v 03 UTC do 05 v 12 UTC
Východojihovýchodní vítr 8 kt
Viditelnost: 0200 m
ve výšce 100 ft
mlha
Pravděpodobnost 40%
od 05 v 03 UTC do 05 v 04 UTC
Viditelnost: 3000 m
Skoro jasno ve výšce 200 ft
kouřmo
Změna
od 05 v 03 UTC do 05 v 05 UTC
Viditelnost 10 km a více
Žádná oblačnost pod 1500 m, nevyskytují se cumulonimby.

TAF: ESSV 050230Z 0503/0512 12008KT 0200 FG VV001 PROB40 0503/0504 3000 BR FEW002 BECMG 0503/0505 CAVOK

Stav a předpovědi počasí z více než 4 000 letišť (zprávy METAR a TAF).

Červené a žluté tečky na mapě představují dostupné meteorologické stanice.

Když kurzor umístíte na tečku, zobrazí se název stanice.

Pak kliknutím zobrazíte stav a předpověď počasí.

Chcete-li změnit mapu, kliknutím na zelené tlačítko se znaménkem +mapu přiblížíte, kliknutím na zelené tlačítko se znaménkem – mapu oddálíte a kliknutím na zelené šipky přejdete na sousední mapy.


METAR-TAF: